Denver, Illinois
Current Conditions -  °F | °C
As of 12:15 PM on Friday 31 Oct 2014 (Local Time) from KMQB Reporting Station
Scattered Clouds Scattered Clouds  
Wind Chill: 32°   Ceiling: Unl
Heat Index: 41°   Visibility: 10mi
Dew Point: 23°   Wind: 22mph
Humidity: 48%   Direction: 350°N
Pressure: 30.35"   Gusts: 32mph
Location:  40.4155°N, 91.0269°W
Report Text: KMQB 311715Z AUTO 35019G28KT 10SM SCT041 05/M05 A3035 RMK AO2 T00521050
Loading
Personal Weather Stations






























Interactive Weather Map
Tropical Storm Tracking
New forecast layout! Learn more

10-Day Weather Forecast

Advertisements
Track Severe Weather on mobile